Time;durP1;ratioP1;P1;durP2;ratioP2;P2;SDS_P1;SDS_P2;PMS_P1;PMS_P2;Temp;Humidity;BMP_temperature;BMP_pressure;BME280_temperature;BME280_humidity;BME280_pressure;Samples;Min_cycle;Max_cycle;Signal;HPM_P1;HPM_P2
2023/03/08 00:00:19;;;;;;;;;;;;;;;4.01;100.00;97881.44;5008155;28;19924;-41
2023/03/08 00:02:44;;;;;;;;;;;;;;;3.24;100.00;97878.06;5007055;28;19921;-41
2023/03/08 00:05:10;;;;;;;;;;;;;;;3.54;100.00;97907.13;5009003;28;19928;-41
2023/03/08 00:07:35;;;;;;;;;;;;;;;4.07;100.00;97924.63;5011619;28;19925;-41
2023/03/08 00:10:01;;;;;;;;;;;;;;;3.41;100.00;97926.06;5004799;28;19916;-41
2023/03/08 00:12:27;;;;;;;;;;;;;;;3.47;100.00;97940.38;5000577;28;20017;-41
2023/03/08 00:14:52;;;;;;;;;;;;;;;3.62;100.00;97957.03;5000583;28;20565;-41
2023/03/08 00:17:17;;;;;;;;;;;;;;;3.94;100.00;97969.06;5007500;28;19921;-41
2023/03/08 00:19:43;;;;;;;;;;;;;;;3.30;100.00;97950.88;5009928;28;20534;-41
2023/03/08 00:22:08;;;;;;;;;;;;;;;3.12;100.00;97959.69;5012541;28;20000;-41
2023/03/08 00:24:33;;;;;;;;;;;;;;;3.39;100.00;97977.84;5013017;28;19960;-41
2023/03/08 00:26:58;;;;;;;;;;;;;;;3.75;100.00;97987.28;5003681;28;19924;-41
2023/03/08 00:29:24;;;;;;;;;;;;;;;4.16;100.00;97997.47;5009444;28;19959;-41
2023/03/08 00:31:49;;;;;;;;;;;;;;;4.17;100.00;97994.91;5014054;28;20009;-41
2023/03/08 00:34:14;;;;;;;;;;;;;;;3.08;100.00;97953.00;5012312;28;19968;-41
2023/03/08 00:36:39;;;;;;;;;;;;;;;3.48;100.00;97972.59;5010210;28;20252;-41
2023/03/08 00:39:05;;;;;;;;;;;;;;;3.80;100.00;97986.38;5012761;28;19925;-41
2023/03/08 00:41:30;;;;;;;;;;;;;;;3.44;100.00;97973.50;5004291;28;20438;-41
2023/03/08 00:43:55;;;;;;;;;;;;;;;3.45;100.00;97975.22;5005429;28;20966;-42
2023/03/08 00:46:20;;;;;;;;;;;;;;;3.13;100.00;97966.50;5007874;28;19968;-41
2023/03/08 00:48:46;;;;;;;;;;;;;;;3.27;100.00;97994.22;5010866;28;19921;-41
2023/03/08 00:51:13;;;;;;;;;;;;;;;3.60;100.00;98018.16;5009282;28;19998;-41
2023/03/08 00:53:38;;;;;;;;;;;;;;;3.22;100.00;98001.94;5005107;28;19953;-41
2023/03/08 00:56:03;;;;;;;;;;;;;;;3.59;100.00;98021.56;5008093;28;19961;-41
2023/03/08 00:58:29;;;;;;;;;;;;;;;4.24;100.00;98041.44;5009543;28;19921;-41
2023/03/08 01:00:55;;;;;;;;;;;;;;;4.41;100.00;98020.69;5009731;28;19988;-41
2023/03/08 01:03:23;;;;;;;;;;;;;;;4.76;100.00;98006.25;5009614;28;19921;-41
2023/03/08 01:05:49;;;;;;;;;;;;;;;4.43;100.00;97970.50;5008881;28;19917;-41
2023/03/08 01:08:15;;;;;;;;;;;;;;;4.40;100.00;97950.16;5012968;28;20422;-41
2023/03/08 01:10:46;;;;;;;;;;;;;;;3.95;100.00;97932.56;5007472;28;20011;-41
2023/03/08 01:13:11;;;;;;;;;;;;;;;4.64;100.00;97947.91;5010031;28;19968;-41
2023/03/08 01:15:36;;;;;;;;;;;;;;;4.84;100.00;97925.28;5007258;28;20382;-41
2023/03/08 01:18:02;;;;;;;;;;;;;;;5.15;100.00;97924.44;5009229;28;19924;-41
2023/03/08 01:20:27;;;;;;;;;;;;;;;4.48;100.00;97882.00;5006888;28;20298;-41
2023/03/08 01:22:52;;;;;;;;;;;;;;;5.23;100.00;97882.53;5010029;28;20011;-41
2023/03/08 01:25:18;;;;;;;;;;;;;;;4.61;100.00;97855.31;5009056;28;19972;-41
2023/03/08 01:27:43;;;;;;;;;;;;;;;4.66;100.00;97850.09;5009794;28;20014;-41
2023/03/08 01:30:08;;;;;;;;;;;;;;;3.96;100.00;97820.41;5007753;28;19975;-41
2023/03/08 01:32:34;;;;;;;;;;;;;;;4.72;100.00;97832.09;5009430;28;19921;-42
2023/03/08 01:35:03;;;;;;;;;;;;;;;4.41;100.00;97819.31;5004745;28;19925;-41
2023/03/08 01:37:28;;;;;;;;;;;;;;;4.96;100.00;97833.09;5012282;28;19917;-41
2023/03/08 01:39:54;;;;;;;;;;;;;;;4.77;100.00;97807.28;5004293;28;20443;-41
2023/03/08 01:42:19;;;;;;;;;;;;;;;4.72;100.00;97793.84;5003680;28;19921;-41
2023/03/08 01:44:50;;;;;;;;;;;;;;;4.57;100.00;97777.22;5011675;28;19982;-41
2023/03/08 01:47:20;;;;;;;;;;;;;;;4.85;100.00;97770.53;5009464;28;19956;-41
2023/03/08 01:49:45;;;;;;;;;;;;;;;4.60;100.00;97753.34;5012352;28;19963;-41
2023/03/08 01:52:11;;;;;;;;;;;;;;;3.85;100.00;97734.97;5026596;28;19952;-41
2023/03/08 01:54:47;;;;;;;;;;;;;;;4.87;100.00;97756.00;5005625;28;20594;-41
2023/03/08 01:57:22;;;;;;;;;;;;;;;4.45;100.00;97739.34;5007917;28;19989;-41
2023/03/08 01:59:48;;;;;;;;;;;;;;;4.80;100.00;97732.38;5008458;28;19923;-41
2023/03/08 02:02:14;;;;;;;;;;;;;;;5.00;100.00;97721.59;5012633;28;20012;-41
2023/03/08 02:04:39;;;;;;;;;;;;;;;4.80;100.00;97705.16;5021877;28;20358;-41
2023/03/08 02:07:05;;;;;;;;;;;;;;;5.12;100.00;97695.69;5012630;28;19924;-41
2023/03/08 02:09:30;;;;;;;;;;;;;;;4.93;100.00;97677.59;5018286;28;19925;-41
2023/03/08 02:11:56;;;;;;;;;;;;;;;3.68;100.00;97642.03;5020097;28;20039;-41
2023/03/08 02:14:21;;;;;;;;;;;;;;;4.34;100.00;97672.53;5002037;28;19929;-41
2023/03/08 02:16:47;;;;;;;;;;;;;;;4.72;100.00;97688.41;5006208;28;19955;-41
2023/03/08 02:19:16;;;;;;;;;;;;;;;4.22;100.00;97681.34;5002187;28;19921;-41
2023/03/08 02:21:41;;;;;;;;;;;;;;;4.75;100.00;97701.94;5005421;28;19979;-41
2023/03/08 02:24:23;;;;;;;;;;;;;;;5.07;100.00;97699.28;5010268;28;19917;-42
2023/03/08 02:26:48;;;;;;;;;;;;;;;5.27;100.00;97673.13;5005104;28;21016;-42
2023/03/08 02:29:14;;;;;;;;;;;;;;;5.06;100.00;97656.78;5008063;28;19963;-41
2023/03/08 02:31:39;;;;;;;;;;;;;;;5.49;100.00;97650.28;5009834;28;19925;-41
2023/03/08 02:34:04;;;;;;;;;;;;;;;6.10;100.00;97643.09;5008844;28;20290;-41
2023/03/08 02:36:29;;;;;;;;;;;;;;;6.30;100.00;97616.00;5007343;28;20004;-41
2023/03/08 02:38:54;;;;;;;;;;;;;;;6.40;100.00;97604.53;5003563;28;20242;-41
2023/03/08 02:41:20;;;;;;;;;;;;;;;6.43;100.00;97582.25;5006568;28;19961;-40
2023/03/08 02:43:45;;;;;;;;;;;;;;;6.56;100.00;97567.22;5003647;28;19956;-41
2023/03/08 02:46:11;;;;;;;;;;;;;;;6.63;100.00;97548.19;5007277;28;20452;-41
2023/03/08 02:48:36;;;;;;;;;;;;;;;6.77;100.00;97527.19;5005990;28;19971;-41
2023/03/08 02:51:01;;;;;;;;;;;;;;;6.75;100.00;97510.22;5007424;28;19928;-41
2023/03/08 02:53:27;;;;;;;;;;;;;;;6.59;100.00;97484.44;5007858;28;19917;-41
2023/03/08 02:55:52;;;;;;;;;;;;;;;6.01;100.00;97465.38;5009226;28;19947;-41
2023/03/08 02:58:17;;;;;;;;;;;;;;;6.35;100.00;97460.69;5002300;28;20763;-41
2023/03/08 03:00:42;;;;;;;;;;;;;;;6.60;100.00;97456.25;5010750;28;19925;-41
2023/03/08 03:03:07;;;;;;;;;;;;;;;6.50;100.00;97449.84;5007708;28;20378;-41
2023/03/08 03:05:33;;;;;;;;;;;;;;;6.74;100.00;97447.19;5006936;28;20278;-41
2023/03/08 03:07:58;;;;;;;;;;;;;;;6.93;100.00;97431.88;5002768;28;20580;-41
2023/03/08 03:10:23;;;;;;;;;;;;;;;6.89;100.00;97428.63;5004798;28;19921;-41
2023/03/08 03:12:49;;;;;;;;;;;;;;;6.64;100.00;97414.31;5004313;28;19917;-41
2023/03/08 03:15:14;;;;;;;;;;;;;;;6.45;100.00;97401.47;5004432;28;19971;-41
2023/03/08 03:17:39;;;;;;;;;;;;;;;6.64;100.00;97410.91;5007864;28;19979;-41
2023/03/08 03:20:05;;;;;;;;;;;;;;;6.76;100.00;97402.72;5000106;28;19944;-41
2023/03/08 03:22:30;;;;;;;;;;;;;;;6.87;100.00;97389.47;5002084;28;20419;-41
2023/03/08 03:24:56;;;;;;;;;;;;;;;7.16;100.00;97382.25;5000175;28;20040;-41
2023/03/08 03:27:21;;;;;;;;;;;;;;;6.77;100.00;97367.72;5007362;28;19917;-41
2023/03/08 03:29:46;;;;;;;;;;;;;;;7.12;100.00;97376.44;5002956;28;19921;-41
2023/03/08 03:32:11;;;;;;;;;;;;;;;7.16;100.00;97374.56;5009574;28;19922;-41
2023/03/08 03:34:37;;;;;;;;;;;;;;;6.83;100.00;97370.03;5010778;28;19947;-41
2023/03/08 03:37:02;;;;;;;;;;;;;;;6.81;100.00;97372.66;5004708;28;20044;-41
2023/03/08 03:39:32;;;;;;;;;;;;;;;6.78;100.00;97369.41;5007571;28;19920;-41
2023/03/08 03:41:58;;;;;;;;;;;;;;;6.95;100.00;97369.47;5007466;28;19926;-41
2023/03/08 03:44:23;;;;;;;;;;;;;;;6.84;100.00;97371.69;5007585;28;20263;-41
2023/03/08 03:46:48;;;;;;;;;;;;;;;6.70;100.00;97369.72;5006825;28;20565;-41
2023/03/08 03:49:13;;;;;;;;;;;;;;;6.77;100.00;97370.28;5005268;28;20563;-41
2023/03/08 03:51:38;;;;;;;;;;;;;;;6.82;100.00;97371.75;5004351;28;20411;-41
2023/03/08 03:54:04;;;;;;;;;;;;;;;6.81;100.00;97366.69;5001812;28;19921;-41
2023/03/08 03:56:29;;;;;;;;;;;;;;;6.56;100.00;97360.06;5007477;28;19925;-41
2023/03/08 03:58:54;;;;;;;;;;;;;;;6.31;100.00;97362.00;5012174;28;19917;-41
2023/03/08 04:01:21;;;;;;;;;;;;;;;6.70;100.00;97365.44;5007293;28;19953;-41
2023/03/08 04:03:46;;;;;;;;;;;;;;;6.70;100.00;97364.59;5003970;28;19951;-41
2023/03/08 04:06:14;;;;;;;;;;;;;;;6.18;100.00;97362.50;5013796;28;19913;-41
2023/03/08 04:08:43;;;;;;;;;;;;;;;6.61;100.00;97367.53;5014792;28;19960;-41
2023/03/08 04:11:09;;;;;;;;;;;;;;;6.47;100.00;97363.00;5005666;28;20270;-41
2023/03/08 04:13:34;;;;;;;;;;;;;;;6.73;100.00;97363.63;5012123;28;19917;-41
2023/03/08 04:16:00;;;;;;;;;;;;;;;6.39;100.00;97365.06;5013202;28;20484;-41
2023/03/08 04:18:25;;;;;;;;;;;;;;;5.62;100.00;97363.81;5016228;28;20445;-41
2023/03/08 04:20:50;;;;;;;;;;;;;;;5.86;100.00;97369.69;5008993;28;19921;-41
2023/03/08 04:23:15;;;;;;;;;;;;;;;6.21;100.00;97366.66;5004084;28;19987;-41
2023/03/08 04:25:40;;;;;;;;;;;;;;;5.55;100.00;97357.28;5008401;28;19922;-41
2023/03/08 04:28:06;;;;;;;;;;;;;;;6.05;100.00;97361.34;5005458;28;19983;-41
2023/03/08 04:30:31;;;;;;;;;;;;;;;5.92;100.00;97357.56;5011765;28;19917;-41
2023/03/08 04:32:56;;;;;;;;;;;;;;;5.67;100.00;97361.06;5005614;28;19953;-41
2023/03/08 04:35:21;;;;;;;;;;;;;;;5.92;100.00;97357.56;5011849;28;20007;-41
2023/03/08 04:37:47;;;;;;;;;;;;;;;5.35;100.00;97352.09;5009739;28;19917;-41
2023/03/08 04:40:12;;;;;;;;;;;;;;;5.61;100.00;97361.31;5005351;28;19921;-41
2023/03/08 04:42:39;;;;;;;;;;;;;;;5.65;100.00;97361.13;5001795;28;19921;-41
2023/03/08 04:45:05;;;;;;;;;;;;;;;5.89;100.00;97375.59;5009368;28;19920;-41
2023/03/08 04:47:30;;;;;;;;;;;;;;;5.81;100.00;97366.47;5010004;28;19928;-41
2023/03/08 04:49:55;;;;;;;;;;;;;;;5.52;100.00;97354.84;5002397;28;20437;-41
2023/03/08 04:52:21;;;;;;;;;;;;;;;4.97;100.00;97365.38;5007277;28;19917;-41
2023/03/08 04:54:46;;;;;;;;;;;;;;;4.53;100.00;97361.81;5009605;28;19925;-41
2023/03/08 04:57:11;;;;;;;;;;;;;;;4.54;100.00;97382.16;5008560;28;19917;-41
2023/03/08 04:59:36;;;;;;;;;;;;;;;4.54;100.00;97387.28;5009825;28;20051;-41
2023/03/08 05:02:02;;;;;;;;;;;;;;;4.37;100.00;97390.34;5009905;28;20031;-41
2023/03/08 05:04:28;;;;;;;;;;;;;;;5.08;100.00;97399.88;5006647;28;19928;-41
2023/03/08 05:06:53;;;;;;;;;;;;;;;5.59;100.00;97399.69;5013790;28;20271;-41
2023/03/08 05:09:18;;;;;;;;;;;;;;;4.65;100.00;97383.50;5005157;28;19914;-41
2023/03/08 05:11:43;;;;;;;;;;;;;;;4.36;100.00;97382.78;5005808;28;20366;-41
2023/03/08 05:14:09;;;;;;;;;;;;;;;4.90;100.00;97397.06;5005370;28;20459;-41
2023/03/08 05:16:34;;;;;;;;;;;;;;;4.35;100.00;97388.75;5004671;28;19917;-41
2023/03/08 05:18:59;;;;;;;;;;;;;;;5.01;100.00;97402.63;5007413;28;19917;-41
2023/03/08 05:21:24;;;;;;;;;;;;;;;4.37;100.00;97389.53;5011185;28;19917;-41
2023/03/08 05:23:50;;;;;;;;;;;;;;;4.98;100.00;97394.25;5002458;28;19917;-41
2023/03/08 05:26:15;;;;;;;;;;;;;;;4.58;100.00;97391.38;5011656;28;20493;-41
2023/03/08 05:28:41;;;;;;;;;;;;;;;4.85;100.00;97401.50;5006849;28;19917;-41
2023/03/08 05:31:07;;;;;;;;;;;;;;;4.35;100.00;97391.28;5007193;28;20404;-41
2023/03/08 05:33:33;;;;;;;;;;;;;;;4.41;100.00;97386.00;5012508;28;19984;-41
2023/03/08 05:35:58;;;;;;;;;;;;;;;4.68;100.00;97393.63;5004298;28;20350;-40
2023/03/08 05:38:24;;;;;;;;;;;;;;;3.89;100.00;97388.50;5003798;28;19924;-40
2023/03/08 05:40:49;;;;;;;;;;;;;;;4.26;100.00;97402.63;5008689;28;19913;-40
2023/03/08 05:43:15;;;;;;;;;;;;;;;4.36;100.00;97413.38;5003109;28;20176;-40
2023/03/08 05:45:40;;;;;;;;;;;;;;;4.52;100.00;97421.34;5007389;28;19921;-40
2023/03/08 05:48:05;;;;;;;;;;;;;;;4.37;100.00;97405.66;5008938;28;20472;-40
2023/03/08 05:50:31;;;;;;;;;;;;;;;4.45;100.00;97400.31;5007873;28;20333;-40
2023/03/08 05:52:56;;;;;;;;;;;;;;;4.86;100.00;97402.31;5000944;28;20633;-40
2023/03/08 05:55:21;;;;;;;;;;;;;;;4.66;100.00;97392.84;5007685;28;20330;-40
2023/03/08 05:57:46;;;;;;;;;;;;;;;5.57;100.00;97396.34;5010840;28;20499;-40
2023/03/08 06:00:12;;;;;;;;;;;;;;;5.30;100.00;97376.97;4997649;28;19991;-40
2023/03/08 06:02:37;;;;;;;;;;;;;;;4.68;100.00;97347.72;5004465;28;19929;-40
2023/03/08 06:05:03;;;;;;;;;;;;;;;4.74;100.00;97360.22;5001633;28;19921;-40
2023/03/08 06:07:29;;;;;;;;;;;;;;;4.12;100.00;97347.00;5007470;28;20322;-41
2023/03/08 06:09:55;;;;;;;;;;;;;;;4.81;100.00;97371.88;5013163;28;19921;-40
2023/03/08 06:12:20;;;;;;;;;;;;;;;3.33;100.00;97343.56;5004720;28;20366;-41
2023/03/08 06:14:45;;;;;;;;;;;;;;;3.60;100.00;97356.31;5002140;28;19935;-40
2023/03/08 06:17:10;;;;;;;;;;;;;;;4.44;100.00;97391.00;5009010;28;20679;-40
2023/03/08 06:19:35;;;;;;;;;;;;;;;3.45;100.00;97366.97;5005082;28;20456;-40
2023/03/08 06:22:01;;;;;;;;;;;;;;;3.87;100.00;97384.34;5004234;28;20409;-40
2023/03/08 06:24:26;;;;;;;;;;;;;;;3.59;100.00;97377.56;5007211;28;20606;-40
2023/03/08 06:26:53;;;;;;;;;;;;;;;4.31;100.00;97400.78;5003439;28;20378;-40
2023/03/08 06:29:18;;;;;;;;;;;;;;;4.12;100.00;97380.13;5006586;28;19921;-40
2023/03/08 06:31:43;;;;;;;;;;;;;;;3.59;100.00;97372.47;4998896;28;20138;-40
2023/03/08 06:34:08;;;;;;;;;;;;;;;3.20;100.00;97367.69;5007607;28;20266;-40
2023/03/08 06:36:34;;;;;;;;;;;;;;;4.08;100.00;97391.31;5006989;28;20293;-40
2023/03/08 06:38:59;;;;;;;;;;;;;;;4.21;100.00;97385.81;5005575;28;20304;-40
2023/03/08 06:41:25;;;;;;;;;;;;;;;3.61;100.00;97378.34;5002543;28;20317;-40
2023/03/08 06:43:50;;;;;;;;;;;;;;;4.84;100.00;97404.13;5009820;28;19921;-40
2023/03/08 06:46:16;;;;;;;;;;;;;;;4.43;100.00;97394.44;5003871;28;19940;-40
2023/03/08 06:48:41;;;;;;;;;;;;;;;4.24;100.00;97383.16;5009627;28;19909;-40
2023/03/08 06:51:06;;;;;;;;;;;;;;;4.05;100.00;97371.03;5000586;28;19921;-40
2023/03/08 06:53:32;;;;;;;;;;;;;;;4.25;100.00;97365.28;5012333;28;20397;-40
2023/03/08 06:55:57;;;;;;;;;;;;;;;4.03;100.00;97357.50;5007007;28;19933;-41
2023/03/08 06:58:22;;;;;;;;;;;;;;;3.43;100.00;97350.91;5007052;28;19921;-40
2023/03/08 07:00:47;;;;;;;;;;;;;;;3.76;100.00;97367.69;5003594;28;19929;-41
2023/03/08 07:03:13;;;;;;;;;;;;;;;3.88;100.00;97371.56;5007942;28;19921;-41
2023/03/08 07:05:38;;;;;;;;;;;;;;;3.30;100.00;97369.06;5003875;28;20273;-41
2023/03/08 07:08:03;;;;;;;;;;;;;;;2.84;100.00;97365.28;5011505;28;19921;-41
2023/03/08 07:10:29;;;;;;;;;;;;;;;3.29;100.00;97387.75;5010565;28;19960;-41
2023/03/08 07:12:54;;;;;;;;;;;;;;;4.12;100.00;97414.97;5003909;28;19927;-41
2023/03/08 07:15:20;;;;;;;;;;;;;;;3.46;100.00;97389.81;5004085;28;20079;-41
2023/03/08 07:17:46;;;;;;;;;;;;;;;3.56;100.00;97390.38;5010906;28;20458;-41
2023/03/08 07:20:12;;;;;;;;;;;;;;;3.90;100.00;97396.97;5003130;28;20020;-41
2023/03/08 07:22:37;;;;;;;;;;;;;;;4.23;100.00;97392.53;5025848;28;20166;-41
2023/03/08 07:25:02;;;;;;;;;;;;;;;3.60;100.00;97374.13;5005108;28;19921;-41
2023/03/08 07:27:28;;;;;;;;;;;;;;;3.34;100.00;97370.63;5004336;28;19918;-41
2023/03/08 07:29:53;;;;;;;;;;;;;;;3.60;100.00;97386.84;5008806;28;19920;-41
2023/03/08 07:32:18;;;;;;;;;;;;;;;3.31;100.00;97391.09;5004057;28;20012;-41
2023/03/08 07:34:44;;;;;;;;;;;;;;;4.24;100.00;97413.75;5002609;28;19925;-41
2023/03/08 07:37:12;;;;;;;;;;;;;;;3.48;100.00;97388.03;5003194;28;19917;-41
2023/03/08 07:39:38;;;;;;;;;;;;;;;3.25;100.00;97391.25;5001002;28;19927;-41
2023/03/08 07:42:03;;;;;;;;;;;;;;;3.43;100.00;97404.34;5002705;28;20027;-41
2023/03/08 07:44:28;;;;;;;;;;;;;;;3.16;100.00;97396.63;4998888;28;20035;-41
2023/03/08 07:46:53;;;;;;;;;;;;;;;3.75;100.00;97416.94;5007097;28;19960;-41
2023/03/08 07:49:19;;;;;;;;;;;;;;;3.44;100.00;97411.09;5005849;28;20547;-41
2023/03/08 07:51:44;;;;;;;;;;;;;;;3.13;100.00;97396.72;5004354;28;19923;-41
2023/03/08 07:54:12;;;;;;;;;;;;;;;3.46;100.00;97414.44;5007214;28;20165;-41
2023/03/08 07:56:37;;;;;;;;;;;;;;;3.18;100.00;97420.31;5009262;28;19924;-41
2023/03/08 07:59:03;;;;;;;;;;;;;;;3.14;100.00;97411.06;5008011;28;20076;-41
2023/03/08 08:01:28;;;;;;;;;;;;;;;3.03;100.00;97418.16;5002295;28;19924;-42
2023/03/08 08:03:53;;;;;;;;;;;;;;;3.10;100.00;97419.66;5001906;28;19917;-41
2023/03/08 08:06:19;;;;;;;;;;;;;;;3.78;100.00;97437.22;5025456;28;19917;-41
2023/03/08 08:08:44;;;;;;;;;;;;;;;3.20;100.00;97418.56;5003328;28;19996;-41
2023/03/08 08:11:10;;;;;;;;;;;;;;;3.46;100.00;97420.34;5008499;28;19967;-41
2023/03/08 08:13:35;;;;;;;;;;;;;;;3.51;100.00;97412.56;5004714;28;19917;-41
2023/03/08 08:16:01;;;;;;;;;;;;;;;2.96;100.00;97398.88;5007647;28;19947;-41
2023/03/08 08:18:27;;;;;;;;;;;;;;;4.17;100.00;97424.16;5005052;28;19922;-41
2023/03/08 08:20:58;;;;;;;;;;;;;;;3.82;100.00;97412.50;5004221;28;19960;-41
2023/03/08 08:23:23;;;;;;;;;;;;;;;3.88;100.00;97411.50;5009120;28;19917;-41
2023/03/08 08:25:49;;;;;;;;;;;;;;;4.23;100.00;97412.09;5005365;28;19929;-41
2023/03/08 08:28:14;;;;;;;;;;;;;;;4.10;100.00;97381.91;5001860;28;19924;-41
2023/03/08 08:30:39;;;;;;;;;;;;;;;4.67;100.00;97386.84;5002432;28;19956;-41
2023/03/08 08:33:05;;;;;;;;;;;;;;;4.77;100.00;97367.81;5003803;28;20497;-41
2023/03/08 08:35:30;;;;;;;;;;;;;;;4.98;100.00;97358.56;5001265;28;19929;-41
2023/03/08 08:37:55;;;;;;;;;;;;;;;4.85;100.00;97335.19;5004400;28;20015;-41
2023/03/08 08:40:21;;;;;;;;;;;;;;;4.41;100.00;97296.81;5005857;28;19960;-41
2023/03/08 08:42:46;;;;;;;;;;;;;;;3.86;100.00;97274.03;5006830;28;20010;-41
2023/03/08 08:45:11;;;;;;;;;;;;;;;4.83;100.00;97291.06;5010234;28;20011;-41
2023/03/08 08:47:36;;;;;;;;;;;;;;;3.75;100.00;97248.06;5005697;28;19967;-41
2023/03/08 08:50:02;;;;;;;;;;;;;;;5.09;100.00;97286.72;5002470;28;20259;-41
2023/03/08 08:52:27;;;;;;;;;;;;;;;4.00;100.00;97253.19;5004739;28;20486;-41
2023/03/08 08:54:52;;;;;;;;;;;;;;;4.39;100.00;97270.53;5012308;28;19952;-41
2023/03/08 08:57:17;;;;;;;;;;;;;;;4.32;100.00;97266.53;5006876;28;19924;-41
2023/03/08 08:59:43;;;;;;;;;;;;;;;3.91;100.00;97248.41;5014285;28;20015;-41
2023/03/08 09:02:09;;;;;;;;;;;;;;;4.45;100.00;97270.34;5004834;28;20618;-41
2023/03/08 09:04:34;;;;;;;;;;;;;;;4.22;100.00;97253.28;5011748;28;19917;-41
2023/03/08 09:06:59;;;;;;;;;;;;;;;4.95;100.00;97254.91;5009858;28;19921;-41
2023/03/08 09:09:25;;;;;;;;;;;;;;;3.97;100.00;97222.75;5005372;28;19921;-41
2023/03/08 09:11:50;;;;;;;;;;;;;;;4.50;100.00;97242.13;5005792;28;19921;-41
2023/03/08 09:14:16;;;;;;;;;;;;;;;2.85;100.00;97204.25;5004734;28;19979;-41
2023/03/08 09:16:41;;;;;;;;;;;;;;;3.69;100.00;97241.47;5003367;28;19918;-41
2023/03/08 09:19:06;;;;;;;;;;;;;;;3.48;100.00;97239.63;5008574;28;20071;-41
2023/03/08 09:21:32;;;;;;;;;;;;;;;3.41;100.00;97249.16;5001927;28;19922;-41
2023/03/08 09:23:58;;;;;;;;;;;;;;;4.06;100.00;97260.63;5009283;28;19955;-41
2023/03/08 09:26:23;;;;;;;;;;;;;;;3.80;100.00;97240.28;5003326;28;19921;-41
2023/03/08 09:28:48;;;;;;;;;;;;;;;3.48;100.00;97234.53;5011022;28;19921;-41
2023/03/08 09:31:17;;;;;;;;;;;;;;;4.29;100.00;97258.97;5003208;28;19948;-41
2023/03/08 09:33:47;;;;;;;;;;;;;;;3.68;100.00;97216.91;5005322;28;19996;-41
2023/03/08 09:36:12;;;;;;;;;;;;;;;3.99;100.00;97231.13;5002516;28;19969;-41
2023/03/08 09:38:37;;;;;;;;;;;;;;;4.34;100.00;97247.75;5005548;28;19956;-41
2023/03/08 09:41:05;;;;;;;;;;;;;;;3.03;100.00;97205.38;5012644;28;20370;-42
2023/03/08 09:43:43;;;;;;;;;;;;;;;4.15;100.00;97247.56;5003984;28;20406;-41
2023/03/08 09:46:10;;;;;;;;;;;;;;;2.55;100.00;97205.97;5007562;28;20433;-41
2023/03/08 09:48:36;;;;;;;;;;;;;;;3.74;100.00;97257.44;5024623;28;20012;-41
2023/03/08 09:51:02;;;;;;;;;;;;;;;3.50;100.00;97251.41;5001432;28;20142;-42
2023/03/08 09:53:31;;;;;;;;;;;;;;;3.62;100.00;97242.53;5021497;28;19917;-42
2023/03/08 09:56:03;;;;;;;;;;;;;;;3.55;100.00;97236.81;5002883;28;19986;-43
2023/03/08 09:58:34;;;;;;;;;;;;;;;4.44;100.00;97268.66;5004971;28;20004;-41
2023/03/08 10:01:32;;;;;;;;;;;;;;;4.15;100.00;97239.94;5026221;28;20492;-40
2023/03/08 10:04:06;;;;;;;;;;;;;;;4.14;100.00;97228.06;5004413;28;19923;-40
2023/03/08 10:06:33;;;;;;;;;;;;;;;3.59;100.00;97217.19;5005849;28;20551;-40
2023/03/08 10:09:05;;;;;;;;;;;;;;;4.53;100.00;97232.63;5000896;28;19940;-41
2023/03/08 10:11:32;;;;;;;;;;;;;;;4.54;100.00;97220.75;5006983;28;19928;-41
2023/03/08 10:13:59;;;;;;;;;;;;;;;4.66;100.00;97197.34;5002144;28;20011;-41
2023/03/08 10:16:25;;;;;;;;;;;;;;;3.90;100.00;97155.91;5007056;28;19921;-41
2023/03/08 10:19:09;;;;;;;;;;;;;;;5.63;100.00;97201.19;4996458;28;19917;-41
2023/03/08 10:21:35;;;;;;;;;;;;;;;5.66;100.00;97171.28;5002347;28;20116;-41
2023/03/08 10:24:03;;;;;;;;;;;;;;;5.74;100.00;97153.06;5009675;28;19914;-41
2023/03/08 10:26:29;;;;;;;;;;;;;;;5.81;100.00;97146.78;5022384;28;19924;-41
2023/03/08 10:28:54;;;;;;;;;;;;;;;4.77;100.00;97112.78;4999659;28;19914;-41
2023/03/08 10:31:26;;;;;;;;;;;;;;;4.67;100.00;97111.47;5011641;28;19928;-41
2023/03/08 10:33:53;;;;;;;;;;;;;;;3.53;100.00;97090.16;4999384;28;19987;-41
2023/03/08 10:36:19;;;;;;;;;;;;;;;5.18;100.00;97131.56;5019589;28;19925;-38
2023/03/08 10:38:55;;;;;;;;;;;;;;;5.82;100.00;97140.81;5001725;28;19928;-41
2023/03/08 10:41:20;;;;;;;;;;;;;;;5.22;100.00;97105.03;5005889;28;20098;-40
2023/03/08 10:43:47;;;;;;;;;;;;;;;4.94;100.00;97112.94;5004133;28;19922;-40
2023/03/08 10:46:13;;;;;;;;;;;;;;;5.56;100.00;97118.09;5002900;28;19921;-41
2023/03/08 10:48:38;;;;;;;;;;;;;;;6.39;100.00;97119.63;5001572;28;19926;-40
2023/03/08 10:51:04;;;;;;;;;;;;;;;5.82;100.00;97094.81;5002059;28;19921;-40
2023/03/08 10:53:30;;;;;;;;;;;;;;;5.48;100.00;97074.19;5006625;28;20012;-40
2023/03/08 10:55:57;;;;;;;;;;;;;;;5.20;100.00;97072.78;5004404;28;19952;-40
2023/03/08 10:58:33;;;;;;;;;;;;;;;6.94;100.00;97090.66;5008202;28;19917;-40
2023/03/08 11:01:03;;;;;;;;;;;;;;;6.18;100.00;97050.69;5002039;28;19925;-40
2023/03/08 11:03:29;;;;;;;;;;;;;;;6.76;100.00;97041.19;5009354;28;19917;-40
2023/03/08 11:05:58;;;;;;;;;;;;;;;7.07;100.00;97026.00;5003558;28;19925;-40
2023/03/08 11:08:25;;;;;;;;;;;;;;;6.34;100.00;96979.22;5029229;28;20448;-41
2023/03/08 11:11:00;;;;;;;;;;;;;;;5.47;100.00;96970.41;5010381;28;19987;-41
2023/03/08 11:13:30;;;;;;;;;;;;;;;6.05;100.00;97001.84;5026468;28;19952;-41
2023/03/08 11:16:19;;;;;;;;;;;;;;;6.82;100.00;97010.16;5027348;28;20520;-40
2023/03/08 11:18:47;;;;;;;;;;;;;;;7.01;100.00;96985.34;5004502;28;19928;-40
2023/03/08 11:21:16;;;;;;;;;;;;;;;7.75;100.00;96966.16;4999854;28;19924;-41
2023/03/08 11:23:48;;;;;;;;;;;;;;;7.52;100.00;96932.34;5008754;28;20410;-40
2023/03/08 11:26:43;;;;;;;;;;;;;;;7.27;100.00;96912.31;5027363;28;19966;-40
2023/03/08 11:29:17;;;;;;;;;;;;;;;8.32;100.00;96925.44;5000250;28;19921;-40
2023/03/08 11:31:52;;;;;;;;;;;;;;;6.87;100.00;96890.53;5008689;28;19916;-40
2023/03/08 11:34:20;;;;;;;;;;;;;;;5.96;100.00;96881.38;5024977;28;19992;-40
2023/03/08 11:36:46;;;;;;;;;;;;;;;6.81;100.00;96921.53;5005254;28;19922;-40
2023/03/08 11:39:11;;;;;;;;;;;;;;;6.85;100.00;96908.50;5003373;28;19974;-40
2023/03/08 11:41:36;;;;;;;;;;;;;;;7.35;100.00;96883.78;5004330;28;19925;-40
2023/03/08 11:44:20;;;;;;;;;;;;;;;8.79;100.00;96878.28;5004428;28;20108;-40
2023/03/08 11:47:04;;;;;;;;;;;;;;;6.43;100.00;96850.09;5007759;28;19918;-40
2023/03/08 11:49:29;;;;;;;;;;;;;;;5.49;100.00;96885.19;5008328;28;19929;-40
2023/03/08 11:52:13;;;;;;;;;;;;;;;5.92;100.00;96900.28;5003599;28;19921;-40
2023/03/08 11:54:45;;;;;;;;;;;;;;;6.34;100.00;96911.91;5003572;28;20430;-40
2023/03/08 11:57:14;;;;;;;;;;;;;;;6.01;100.00;96910.09;4999184;28;19921;-40
2023/03/08 12:00:05;;;;;;;;;;;;;;;5.81;100.00;96919.47;5001776;28;19979;-40
2023/03/08 12:02:33;;;;;;;;;;;;;;;6.64;100.00;96919.84;5003073;28;19924;-40
2023/03/08 12:05:00;;;;;;;;;;;;;;;5.54;100.00;96897.75;4997670;28;19917;-40
2023/03/08 12:07:27;;;;;;;;;;;;;;;6.68;100.00;96927.28;5006780;28;20472;-40
2023/03/08 12:10:00;;;;;;;;;;;;;;;6.24;100.00;96926.88;5022174;28;19975;-40
2023/03/08 12:12:58;;;;;;;;;;;;;;;5.42;100.00;96922.94;4996969;28;20528;-40
2023/03/08 12:15:34;;;;;;;;;;;;;;;6.25;100.00;96924.25;5004574;28;19929;-40
2023/03/08 12:18:16;;;;;;;;;;;;;;;5.43;100.00;96901.63;5022529;28;19921;-40
2023/03/08 12:20:42;;;;;;;;;;;;;;;5.68;100.00;96918.41;5004282;28;20041;-40
2023/03/08 12:23:22;;;;;;;;;;;;;;;6.32;100.00;96929.06;5010353;28;20338;-40
2023/03/08 12:25:49;;;;;;;;;;;;;;;4.81;100.00;96910.28;5015219;28;19917;-40
2023/03/08 12:28:16;;;;;;;;;;;;;;;5.75;100.00;96944.47;5005022;28;20040;-40
2023/03/08 12:31:00;;;;;;;;;;;;;;;4.73;100.00;96948.88;5002608;28;20277;-40
2023/03/08 12:33:26;;;;;;;;;;;;;;;7.49;100.00;97009.34;5013787;28;20032;-40
2023/03/08 12:36:04;;;;;;;;;;;;;;;5.58;100.00;96935.84;5012487;28;19921;-40
2023/03/08 12:38:44;;;;;;;;;;;;;;;5.62;100.00;96946.75;5011348;28;19917;-40
2023/03/08 12:41:23;;;;;;;;;;;;;;;6.05;100.00;96949.94;5002474;28;19932;-40
2023/03/08 12:44:24;;;;;;;;;;;;;;;6.55;100.00;96951.78;5001454;28;20398;-40
2023/03/08 12:46:51;;;;;;;;;;;;;;;5.71;100.00;96928.47;4995595;28;20000;-40